sensor_id;sensor_type;location;lat;lon;timestamp;temperature;humidity
52697;DHT22;38593;52.670;6.286;2022-07-19T00:01:34;21.80;90.30
52697;DHT22;38593;52.670;6.286;2022-07-19T00:04:00;21.70;90.40
52697;DHT22;38593;52.670;6.286;2022-07-19T00:06:25;21.80;90.40
52697;DHT22;38593;52.670;6.286;2022-07-19T00:08:51;21.60;90.40
52697;DHT22;38593;52.670;6.286;2022-07-19T00:11:17;21.60;90.60
52697;DHT22;38593;52.670;6.286;2022-07-19T00:13:42;21.60;90.70
52697;DHT22;38593;52.670;6.286;2022-07-19T00:16:08;21.50;90.80
52697;DHT22;38593;52.670;6.286;2022-07-19T00:18:33;21.50;90.90
52697;DHT22;38593;52.670;6.286;2022-07-19T00:20:58;21.50;91.00
52697;DHT22;38593;52.670;6.286;2022-07-19T00:23:24;21.40;91.00
52697;DHT22;38593;52.670;6.286;2022-07-19T00:25:50;21.40;91.20
52697;DHT22;38593;52.670;6.286;2022-07-19T00:28:15;21.40;91.20
52697;DHT22;38593;52.670;6.286;2022-07-19T00:30:40;21.40;91.30
52697;DHT22;38593;52.670;6.286;2022-07-19T00:33:06;21.20;91.40
52697;DHT22;38593;52.670;6.286;2022-07-19T00:35:34;21.30;91.50
52697;DHT22;38593;52.670;6.286;2022-07-19T00:38:11;21.20;91.50
52697;DHT22;38593;52.670;6.286;2022-07-19T00:40:37;21.10;91.80
52697;DHT22;38593;52.670;6.286;2022-07-19T00:43:03;21.10;92.00
52697;DHT22;38593;52.670;6.286;2022-07-19T00:45:28;21.00;92.10
52697;DHT22;38593;52.670;6.286;2022-07-19T00:47:54;21.10;92.20
52697;DHT22;38593;52.670;6.286;2022-07-19T00:50:19;21.00;92.30
52697;DHT22;38593;52.670;6.286;2022-07-19T00:52:46;21.00;92.30
52697;DHT22;38593;52.670;6.286;2022-07-19T00:55:13;21.00;92.40
52697;DHT22;38593;52.670;6.286;2022-07-19T00:57:40;21.00;92.50
52697;DHT22;38593;52.670;6.286;2022-07-19T01:00:06;21.00;92.60
52697;DHT22;38593;52.670;6.286;2022-07-19T01:02:32;21.00;92.70
52697;DHT22;38593;52.670;6.286;2022-07-19T01:04:58;20.90;92.70
52697;DHT22;38593;52.670;6.286;2022-07-19T01:07:24;20.90;92.70
52697;DHT22;38593;52.670;6.286;2022-07-19T01:09:50;20.80;92.90
52697;DHT22;38593;52.670;6.286;2022-07-19T01:12:16;20.90;93.00
52697;DHT22;38593;52.670;6.286;2022-07-19T01:14:42;20.80;93.10
52697;DHT22;38593;52.670;6.286;2022-07-19T01:17:08;20.80;93.20
52697;DHT22;38593;52.670;6.286;2022-07-19T01:19:33;20.70;93.30
52697;DHT22;38593;52.670;6.286;2022-07-19T01:21:59;20.70;93.40
52697;DHT22;38593;52.670;6.286;2022-07-19T01:24:24;20.60;93.50
52697;DHT22;38593;52.670;6.286;2022-07-19T01:26:50;20.60;93.70
52697;DHT22;38593;52.670;6.286;2022-07-19T01:29:15;20.60;93.70
52697;DHT22;38593;52.670;6.286;2022-07-19T01:31:41;20.50;93.70
52697;DHT22;38593;52.670;6.286;2022-07-19T01:34:07;20.50;93.80
52697;DHT22;38593;52.670;6.286;2022-07-19T01:36:32;20.50;93.90
52697;DHT22;38593;52.670;6.286;2022-07-19T01:38:58;20.50;93.90
52697;DHT22;38593;52.670;6.286;2022-07-19T01:41:23;20.50;94.10
52697;DHT22;38593;52.670;6.286;2022-07-19T01:43:49;20.40;94.00
52697;DHT22;38593;52.670;6.286;2022-07-19T01:46:14;20.40;94.10
52697;DHT22;38593;52.670;6.286;2022-07-19T01:48:40;20.40;94.10
52697;DHT22;38593;52.670;6.286;2022-07-19T01:51:06;20.40;94.20
52697;DHT22;38593;52.670;6.286;2022-07-19T01:53:31;20.30;94.20
52697;DHT22;38593;52.670;6.286;2022-07-19T01:55:57;20.30;94.20
52697;DHT22;38593;52.670;6.286;2022-07-19T01:58:22;20.30;94.30
52697;DHT22;38593;52.670;6.286;2022-07-19T02:00:48;20.20;94.30
52697;DHT22;38593;52.670;6.286;2022-07-19T02:03:13;20.20;94.50
52697;DHT22;38593;52.670;6.286;2022-07-19T02:05:39;20.10;94.60
52697;DHT22;38593;52.670;6.286;2022-07-19T02:08:04;20.10;94.60
52697;DHT22;38593;52.670;6.286;2022-07-19T02:10:31;20.10;94.70
52697;DHT22;38593;52.670;6.286;2022-07-19T02:12:56;20.10;94.70
52697;DHT22;38593;52.670;6.286;2022-07-19T02:15:22;20.10;94.80
52697;DHT22;38593;52.670;6.286;2022-07-19T02:17:47;20.10;94.90
52697;DHT22;38593;52.670;6.286;2022-07-19T02:20:13;20.10;95.00
52697;DHT22;38593;52.670;6.286;2022-07-19T02:22:39;20.00;95.00
52697;DHT22;38593;52.670;6.286;2022-07-19T02:25:04;19.90;95.00
52697;DHT22;38593;52.670;6.286;2022-07-19T02:27:30;20.00;95.20
52697;DHT22;38593;52.670;6.286;2022-07-19T02:29:56;19.90;95.30
52697;DHT22;38593;52.670;6.286;2022-07-19T02:32:21;19.90;95.40
52697;DHT22;38593;52.670;6.286;2022-07-19T02:34:46;19.90;95.40
52697;DHT22;38593;52.670;6.286;2022-07-19T02:37:12;19.80;95.40
52697;DHT22;38593;52.670;6.286;2022-07-19T02:39:37;19.80;95.50
52697;DHT22;38593;52.670;6.286;2022-07-19T02:42:03;19.70;95.60
52697;DHT22;38593;52.670;6.286;2022-07-19T02:44:28;19.70;95.60
52697;DHT22;38593;52.670;6.286;2022-07-19T02:46:54;19.70;95.60
52697;DHT22;38593;52.670;6.286;2022-07-19T02:49:19;19.70;95.70
52697;DHT22;38593;52.670;6.286;2022-07-19T02:51:46;19.60;95.80
52697;DHT22;38593;52.670;6.286;2022-07-19T02:54:11;19.60;96.00
52697;DHT22;38593;52.670;6.286;2022-07-19T02:56:37;19.60;96.00
52697;DHT22;38593;52.670;6.286;2022-07-19T02:59:03;19.60;96.00
52697;DHT22;38593;52.670;6.286;2022-07-19T03:01:28;19.50;96.00
52697;DHT22;38593;52.670;6.286;2022-07-19T03:03:55;19.50;96.10
52697;DHT22;38593;52.670;6.286;2022-07-19T03:06:21;19.50;96.30
52697;DHT22;38593;52.670;6.286;2022-07-19T03:08:46;19.50;96.20
52697;DHT22;38593;52.670;6.286;2022-07-19T03:11:12;19.50;96.30
52697;DHT22;38593;52.670;6.286;2022-07-19T03:13:38;19.40;96.50
52697;DHT22;38593;52.670;6.286;2022-07-19T03:16:03;19.40;96.50
52697;DHT22;38593;52.670;6.286;2022-07-19T03:18:29;19.30;96.60
52697;DHT22;38593;52.670;6.286;2022-07-19T03:20:54;19.30;96.60
52697;DHT22;38593;52.670;6.286;2022-07-19T03:23:20;19.30;96.60
52697;DHT22;38593;52.670;6.286;2022-07-19T03:25:46;19.30;96.60
52697;DHT22;38593;52.670;6.286;2022-07-19T03:28:11;19.30;96.60
52697;DHT22;38593;52.670;6.286;2022-07-19T03:30:37;19.30;96.70
52697;DHT22;38593;52.670;6.286;2022-07-19T03:33:02;19.30;96.80
52697;DHT22;38593;52.670;6.286;2022-07-19T03:35:28;19.30;96.80
52697;DHT22;38593;52.670;6.286;2022-07-19T03:37:53;19.20;96.80
52697;DHT22;38593;52.670;6.286;2022-07-19T03:40:19;19.20;97.20
52697;DHT22;38593;52.670;6.286;2022-07-19T03:42:44;19.10;97.10
52697;DHT22;38593;52.670;6.286;2022-07-19T03:45:10;19.10;97.20
52697;DHT22;38593;52.670;6.286;2022-07-19T03:47:36;19.10;97.10
52697;DHT22;38593;52.670;6.286;2022-07-19T03:50:01;19.10;97.10
52697;DHT22;38593;52.670;6.286;2022-07-19T03:52:27;19.10;97.00
52697;DHT22;38593;52.670;6.286;2022-07-19T03:54:53;19.00;97.00
52697;DHT22;38593;52.670;6.286;2022-07-19T03:57:18;19.00;97.00
52697;DHT22;38593;52.670;6.286;2022-07-19T03:59:44;19.00;97.00
52697;DHT22;38593;52.670;6.286;2022-07-19T04:02:09;18.90;97.10
52697;DHT22;38593;52.670;6.286;2022-07-19T04:04:35;18.90;97.30
52697;DHT22;38593;52.670;6.286;2022-07-19T04:07:00;18.80;97.30
52697;DHT22;38593;52.670;6.286;2022-07-19T04:09:25;18.80;97.40
52697;DHT22;38593;52.670;6.286;2022-07-19T04:11:51;18.80;97.60
52697;DHT22;38593;52.670;6.286;2022-07-19T04:14:16;18.80;97.50
52697;DHT22;38593;52.670;6.286;2022-07-19T04:16:42;18.90;97.60
52697;DHT22;38593;52.670;6.286;2022-07-19T04:19:07;18.90;97.50
52697;DHT22;38593;52.670;6.286;2022-07-19T04:21:33;18.90;97.40
52697;DHT22;38593;52.670;6.286;2022-07-19T04:23:59;19.00;97.30
52697;DHT22;38593;52.670;6.286;2022-07-19T04:26:24;19.00;97.30
52697;DHT22;38593;52.670;6.286;2022-07-19T04:28:50;19.00;97.10
52697;DHT22;38593;52.670;6.286;2022-07-19T04:31:15;19.00;97.20
52697;DHT22;38593;52.670;6.286;2022-07-19T04:33:41;19.00;97.30
52697;DHT22;38593;52.670;6.286;2022-07-19T04:36:07;19.10;97.30
52697;DHT22;38593;52.670;6.286;2022-07-19T04:38:33;19.10;97.20
52697;DHT22;38593;52.670;6.286;2022-07-19T04:40:58;19.10;97.20
52697;DHT22;38593;52.670;6.286;2022-07-19T04:43:24;19.20;97.00
52697;DHT22;38593;52.670;6.286;2022-07-19T04:45:49;19.10;96.90
52697;DHT22;38593;52.670;6.286;2022-07-19T04:48:15;19.30;96.90
52697;DHT22;38593;52.670;6.286;2022-07-19T04:50:40;19.20;96.80
52697;DHT22;38593;52.670;6.286;2022-07-19T04:53:06;19.30;96.60
52697;DHT22;38593;52.670;6.286;2022-07-19T04:55:31;19.40;96.60
52697;DHT22;38593;52.670;6.286;2022-07-19T04:57:57;19.40;96.70
52697;DHT22;38593;52.670;6.286;2022-07-19T05:00:22;19.40;96.80
52697;DHT22;38593;52.670;6.286;2022-07-19T05:02:48;19.50;96.40
52697;DHT22;38593;52.670;6.286;2022-07-19T05:05:13;19.50;96.10
52697;DHT22;38593;52.670;6.286;2022-07-19T05:07:39;19.60;96.10
52697;DHT22;38593;52.670;6.286;2022-07-19T05:10:05;19.60;96.10
52697;DHT22;38593;52.670;6.286;2022-07-19T05:12:31;19.70;95.90
52697;DHT22;38593;52.670;6.286;2022-07-19T05:14:56;19.70;95.60
52697;DHT22;38593;52.670;6.286;2022-07-19T05:17:23;19.80;95.70
52697;DHT22;38593;52.670;6.286;2022-07-19T05:19:49;19.80;96.10
52697;DHT22;38593;52.670;6.286;2022-07-19T05:22:14;19.90;96.20
52697;DHT22;38593;52.670;6.286;2022-07-19T05:24:40;19.90;96.00
52697;DHT22;38593;52.670;6.286;2022-07-19T05:27:05;19.90;95.90
52697;DHT22;38593;52.670;6.286;2022-07-19T05:29:31;20.00;95.90
52697;DHT22;38593;52.670;6.286;2022-07-19T05:31:57;20.00;95.90
52697;DHT22;38593;52.670;6.286;2022-07-19T05:34:22;20.10;95.70
52697;DHT22;38593;52.670;6.286;2022-07-19T05:36:48;20.10;95.70
52697;DHT22;38593;52.670;6.286;2022-07-19T05:39:13;20.20;95.50
52697;DHT22;38593;52.670;6.286;2022-07-19T05:41:40;20.20;95.40
52697;DHT22;38593;52.670;6.286;2022-07-19T05:44:05;20.30;95.30
52697;DHT22;38593;52.670;6.286;2022-07-19T05:46:31;20.40;95.20
52697;DHT22;38593;52.670;6.286;2022-07-19T05:48:56;20.40;94.90
52697;DHT22;38593;52.670;6.286;2022-07-19T05:51:22;20.50;94.90
52697;DHT22;38593;52.670;6.286;2022-07-19T05:53:47;20.50;94.90
52697;DHT22;38593;52.670;6.286;2022-07-19T05:56:13;20.60;95.10
52697;DHT22;38593;52.670;6.286;2022-07-19T05:58:38;20.60;94.90
52697;DHT22;38593;52.670;6.286;2022-07-19T06:01:04;20.70;94.90
52697;DHT22;38593;52.670;6.286;2022-07-19T06:04:08;20.80;95.10
52697;DHT22;38593;52.670;6.286;2022-07-19T06:06:33;20.90;94.90
52697;DHT22;38593;52.670;6.286;2022-07-19T06:08:59;21.00;94.60
52697;DHT22;38593;52.670;6.286;2022-07-19T06:11:25;21.00;94.60
52697;DHT22;38593;52.670;6.286;2022-07-19T06:13:51;21.20;94.50
52697;DHT22;38593;52.670;6.286;2022-07-19T06:16:16;21.30;94.60
52697;DHT22;38593;52.670;6.286;2022-07-19T06:18:42;21.30;94.40
52697;DHT22;38593;52.670;6.286;2022-07-19T06:21:08;21.40;94.60
52697;DHT22;38593;52.670;6.286;2022-07-19T06:23:34;21.50;94.40
52697;DHT22;38593;52.670;6.286;2022-07-19T06:26:00;21.60;94.20
52697;DHT22;38593;52.670;6.286;2022-07-19T06:28:25;21.70;94.40
52697;DHT22;38593;52.670;6.286;2022-07-19T06:30:51;21.80;94.30
52697;DHT22;38593;52.670;6.286;2022-07-19T06:33:17;21.90;94.40
52697;DHT22;38593;52.670;6.286;2022-07-19T06:35:43;22.00;94.20
52697;DHT22;38593;52.670;6.286;2022-07-19T06:38:08;22.00;94.10
52697;DHT22;38593;52.670;6.286;2022-07-19T06:40:34;22.10;94.00
52697;DHT22;38593;52.670;6.286;2022-07-19T06:42:59;22.20;94.00
52697;DHT22;38593;52.670;6.286;2022-07-19T06:45:25;22.30;94.20
52697;DHT22;38593;52.670;6.286;2022-07-19T06:47:50;22.40;94.10
52697;DHT22;38593;52.670;6.286;2022-07-19T06:50:17;22.60;93.90
52697;DHT22;38593;52.670;6.286;2022-07-19T06:52:42;22.70;93.70
52697;DHT22;38593;52.670;6.286;2022-07-19T06:55:08;22.80;93.60
52697;DHT22;38593;52.670;6.286;2022-07-19T06:57:33;22.90;93.80
52697;DHT22;38593;52.670;6.286;2022-07-19T06:59:59;23.00;93.80
52697;DHT22;38593;52.670;6.286;2022-07-19T07:02:24;23.20;93.50
52697;DHT22;38593;52.670;6.286;2022-07-19T07:04:50;23.30;93.40
52697;DHT22;38593;52.670;6.286;2022-07-19T07:07:15;23.40;93.00
52697;DHT22;38593;52.670;6.286;2022-07-19T07:09:41;23.50;92.80
52697;DHT22;38593;52.670;6.286;2022-07-19T07:12:07;23.60;92.60
52697;DHT22;38593;52.670;6.286;2022-07-19T07:14:34;23.60;92.70
52697;DHT22;38593;52.670;6.286;2022-07-19T07:17:00;23.80;93.10
52697;DHT22;38593;52.670;6.286;2022-07-19T07:19:25;23.90;92.80
52697;DHT22;38593;52.670;6.286;2022-07-19T07:21:50;24.00;92.30
52697;DHT22;38593;52.670;6.286;2022-07-19T07:24:16;24.10;92.40
52697;DHT22;38593;52.670;6.286;2022-07-19T07:26:42;24.20;92.60
52697;DHT22;38593;52.670;6.286;2022-07-19T07:29:07;24.30;92.10
52697;DHT22;38593;52.670;6.286;2022-07-19T07:31:33;24.50;92.20
52697;DHT22;38593;52.670;6.286;2022-07-19T07:33:58;24.60;92.70
52697;DHT22;38593;52.670;6.286;2022-07-19T07:36:24;24.70;92.70
52697;DHT22;38593;52.670;6.286;2022-07-19T07:38:49;24.80;92.10
52697;DHT22;38593;52.670;6.286;2022-07-19T07:41:15;25.00;92.20
52697;DHT22;38593;52.670;6.286;2022-07-19T07:43:40;25.10;91.90
52697;DHT22;38593;52.670;6.286;2022-07-19T07:46:06;25.30;91.90
52697;DHT22;38593;52.670;6.286;2022-07-19T07:48:31;25.40;91.60
52697;DHT22;38593;52.670;6.286;2022-07-19T07:50:57;25.70;91.70
52697;DHT22;38593;52.670;6.286;2022-07-19T07:53:22;25.80;91.40
52697;DHT22;38593;52.670;6.286;2022-07-19T07:55:48;25.90;91.40
52697;DHT22;38593;52.670;6.286;2022-07-19T07:58:13;26.10;91.40
52697;DHT22;38593;52.670;6.286;2022-07-19T08:00:39;26.20;90.60
52697;DHT22;38593;52.670;6.286;2022-07-19T08:03:05;26.40;90.40
52697;DHT22;38593;52.670;6.286;2022-07-19T08:05:30;26.50;89.50
52697;DHT22;38593;52.670;6.286;2022-07-19T08:07:57;26.60;89.20
52697;DHT22;38593;52.670;6.286;2022-07-19T08:10:23;26.70;89.40
52697;DHT22;38593;52.670;6.286;2022-07-19T08:12:49;26.80;89.30
52697;DHT22;38593;52.670;6.286;2022-07-19T08:15:14;27.00;87.80
52697;DHT22;38593;52.670;6.286;2022-07-19T08:17:40;27.10;86.30
52697;DHT22;38593;52.670;6.286;2022-07-19T08:20:06;27.20;87.40
52697;DHT22;38593;52.670;6.286;2022-07-19T08:22:31;27.40;87.50
52697;DHT22;38593;52.670;6.286;2022-07-19T08:24:57;27.50;86.50
52697;DHT22;38593;52.670;6.286;2022-07-19T08:27:22;27.70;85.70
52697;DHT22;38593;52.670;6.286;2022-07-19T08:29:48;27.90;84.90
52697;DHT22;38593;52.670;6.286;2022-07-19T08:32:14;28.10;83.50
52697;DHT22;38593;52.670;6.286;2022-07-19T08:34:39;28.20;83.20
52697;DHT22;38593;52.670;6.286;2022-07-19T08:37:05;28.30;83.20
52697;DHT22;38593;52.670;6.286;2022-07-19T08:39:30;28.50;83.00
52697;DHT22;38593;52.670;6.286;2022-07-19T08:41:56;28.60;82.50
52697;DHT22;38593;52.670;6.286;2022-07-19T08:44:22;28.70;83.50
52697;DHT22;38593;52.670;6.286;2022-07-19T08:46:47;28.90;83.40
52697;DHT22;38593;52.670;6.286;2022-07-19T08:49:13;29.00;81.00
52697;DHT22;38593;52.670;6.286;2022-07-19T08:51:39;29.20;79.90
52697;DHT22;38593;52.670;6.286;2022-07-19T08:54:06;29.30;79.60
52697;DHT22;38593;52.670;6.286;2022-07-19T08:56:31;29.40;78.70
52697;DHT22;38593;52.670;6.286;2022-07-19T08:59:21;29.50;74.90
52697;DHT22;38593;52.670;6.286;2022-07-19T09:01:47;29.80;75.50
52697;DHT22;38593;52.670;6.286;2022-07-19T09:04:14;29.90;76.10
52697;DHT22;38593;52.670;6.286;2022-07-19T09:06:44;30.00;75.50
52697;DHT22;38593;52.670;6.286;2022-07-19T09:09:10;30.20;74.80
52697;DHT22;38593;52.670;6.286;2022-07-19T09:11:39;30.40;73.00
52697;DHT22;38593;52.670;6.286;2022-07-19T09:14:14;30.50;74.30
52697;DHT22;38593;52.670;6.286;2022-07-19T09:16:50;30.80;74.20
52697;DHT22;38593;52.670;6.286;2022-07-19T09:19:17;31.00;73.30
52697;DHT22;38593;52.670;6.286;2022-07-19T09:24:18;31.40;71.50
52697;DHT22;38593;52.670;6.286;2022-07-19T09:29:28;31.60;68.50
52697;DHT22;38593;52.670;6.286;2022-07-19T09:34:55;32.00;67.60
52697;DHT22;38593;52.670;6.286;2022-07-19T09:37:24;32.30;64.10
52697;DHT22;38593;52.670;6.286;2022-07-19T09:39:52;32.40;65.70
52697;DHT22;38593;52.670;6.286;2022-07-19T09:42:21;32.60;66.70
52697;DHT22;38593;52.670;6.286;2022-07-19T09:44:56;32.80;65.60
52697;DHT22;38593;52.670;6.286;2022-07-19T09:47:29;32.90;62.50
52697;DHT22;38593;52.670;6.286;2022-07-19T09:49:55;33.10;62.20
52697;DHT22;38593;52.670;6.286;2022-07-19T09:52:21;33.10;59.00
52697;DHT22;38593;52.670;6.286;2022-07-19T09:54:46;33.20;60.90
52697;DHT22;38593;52.670;6.286;2022-07-19T09:57:12;33.20;61.10
52697;DHT22;38593;52.670;6.286;2022-07-19T09:59:43;33.30;57.50
52697;DHT22;38593;52.670;6.286;2022-07-19T10:02:13;33.30;57.80
52697;DHT22;38593;52.670;6.286;2022-07-19T10:04:38;33.30;57.90
52697;DHT22;38593;52.670;6.286;2022-07-19T10:07:04;33.40;58.30
52697;DHT22;38593;52.670;6.286;2022-07-19T10:09:30;33.50;58.00
52697;DHT22;38593;52.670;6.286;2022-07-19T10:11:55;33.60;58.30
52697;DHT22;38593;52.670;6.286;2022-07-19T10:14:21;33.60;56.10
52697;DHT22;38593;52.670;6.286;2022-07-19T10:21:55;33.60;57.40
52697;DHT22;38593;52.670;6.286;2022-07-19T10:27:05;33.80;54.90
52697;DHT22;38593;52.670;6.286;2022-07-19T10:29:30;33.70;56.40
52697;DHT22;38593;52.670;6.286;2022-07-19T10:32:03;33.70;56.20
52697;DHT22;38593;52.670;6.286;2022-07-19T10:34:28;33.70;55.60
52697;DHT22;38593;52.670;6.286;2022-07-19T10:36:54;33.50;55.00
52697;DHT22;38593;52.670;6.286;2022-07-19T10:39:21;33.40;54.00
52697;DHT22;38593;52.670;6.286;2022-07-19T10:44:31;33.20;54.30
52697;DHT22;38593;52.670;6.286;2022-07-19T10:46:57;33.20;53.50
52697;DHT22;38593;52.670;6.286;2022-07-19T10:57:35;33.10;55.60
52697;DHT22;38593;52.670;6.286;2022-07-19T11:00:01;33.00;55.40
52697;DHT22;38593;52.670;6.286;2022-07-19T11:02:27;33.10;55.30
52697;DHT22;38593;52.670;6.286;2022-07-19T11:04:52;33.10;54.50
52697;DHT22;38593;52.670;6.286;2022-07-19T11:07:19;33.00;54.50
52697;DHT22;38593;52.670;6.286;2022-07-19T11:12:23;33.00;53.80
52697;DHT22;38593;52.670;6.286;2022-07-19T11:14:49;33.00;53.30
52697;DHT22;38593;52.670;6.286;2022-07-19T11:17:15;33.00;52.80
52697;DHT22;38593;52.670;6.286;2022-07-19T11:19:55;33.00;52.60
52697;DHT22;38593;52.670;6.286;2022-07-19T11:22:21;33.00;52.80
52697;DHT22;38593;52.670;6.286;2022-07-19T11:24:46;32.90;53.90
52697;DHT22;38593;52.670;6.286;2022-07-19T11:27:12;33.00;53.20
52697;DHT22;38593;52.670;6.286;2022-07-19T11:29:54;33.00;52.20
52697;DHT22;38593;52.670;6.286;2022-07-19T11:32:19;33.00;51.80
52697;DHT22;38593;52.670;6.286;2022-07-19T11:35:02;32.90;53.00
52697;DHT22;38593;52.670;6.286;2022-07-19T11:37:29;32.90;52.10
52697;DHT22;38593;52.670;6.286;2022-07-19T11:39:55;32.90;52.30
52697;DHT22;38593;52.670;6.286;2022-07-19T11:44:54;33.10;53.70
52697;DHT22;38593;52.670;6.286;2022-07-19T11:47:20;33.10;51.50
52697;DHT22;38593;52.670;6.286;2022-07-19T11:49:46;33.10;52.10
52697;DHT22;38593;52.670;6.286;2022-07-19T11:52:12;33.20;50.30
52697;DHT22;38593;52.670;6.286;2022-07-19T11:54:37;33.20;50.90
52697;DHT22;38593;52.670;6.286;2022-07-19T11:57:21;33.30;51.40
52697;DHT22;38593;52.670;6.286;2022-07-19T11:59:47;33.40;48.40
52697;DHT22;38593;52.670;6.286;2022-07-19T12:02:12;33.60;50.90
52697;DHT22;38593;52.670;6.286;2022-07-19T12:04:38;33.60;49.70
52697;DHT22;38593;52.670;6.286;2022-07-19T12:07:03;33.80;48.90
52697;DHT22;38593;52.670;6.286;2022-07-19T12:09:29;33.90;48.60
52697;DHT22;38593;52.670;6.286;2022-07-19T12:11:57;34.00;47.90
52697;DHT22;38593;52.670;6.286;2022-07-19T12:14:24;34.10;49.80
52697;DHT22;38593;52.670;6.286;2022-07-19T12:16:50;34.20;48.70
52697;DHT22;38593;52.670;6.286;2022-07-19T12:19:33;34.20;48.00
52697;DHT22;38593;52.670;6.286;2022-07-19T12:21:58;34.30;48.70
52697;DHT22;38593;52.670;6.286;2022-07-19T12:24:24;34.20;47.70
52697;DHT22;38593;52.670;6.286;2022-07-19T12:29:23;34.30;44.80
52697;DHT22;38593;52.670;6.286;2022-07-19T12:31:50;34.30;46.00
52697;DHT22;38593;52.670;6.286;2022-07-19T12:34:17;34.40;46.20
52697;DHT22;38593;52.670;6.286;2022-07-19T12:36:42;34.40;44.30
52697;DHT22;38593;52.670;6.286;2022-07-19T12:39:18;34.40;47.20
52697;DHT22;38593;52.670;6.286;2022-07-19T12:44:25;34.60;47.10
52697;DHT22;38593;52.670;6.286;2022-07-19T12:46:50;34.50;46.50
52697;DHT22;38593;52.670;6.286;2022-07-19T12:49:16;34.60;47.50
52697;DHT22;38593;52.670;6.286;2022-07-19T12:51:42;34.70;46.40
52697;DHT22;38593;52.670;6.286;2022-07-19T12:54:09;34.70;45.40
52697;DHT22;38593;52.670;6.286;2022-07-19T12:56:35;34.70;45.30
52697;DHT22;38593;52.670;6.286;2022-07-19T12:59:00;34.70;45.40
52697;DHT22;38593;52.670;6.286;2022-07-19T13:01:44;34.80;44.60
52697;DHT22;38593;52.670;6.286;2022-07-19T13:04:10;34.80;44.50
52697;DHT22;38593;52.670;6.286;2022-07-19T13:06:36;34.90;43.00
52697;DHT22;38593;52.670;6.286;2022-07-19T13:09:01;34.90;44.10
52697;DHT22;38593;52.670;6.286;2022-07-19T13:11:27;35.00;44.20
52697;DHT22;38593;52.670;6.286;2022-07-19T13:13:53;35.00;44.10
52697;DHT22;38593;52.670;6.286;2022-07-19T13:16:18;35.10;44.80
52697;DHT22;38593;52.670;6.286;2022-07-19T13:18:46;35.10;43.70
52697;DHT22;38593;52.670;6.286;2022-07-19T13:21:12;35.20;43.60
52697;DHT22;38593;52.670;6.286;2022-07-19T13:23:37;35.10;43.50
52697;DHT22;38593;52.670;6.286;2022-07-19T13:26:03;35.20;43.00
52697;DHT22;38593;52.670;6.286;2022-07-19T13:28:28;35.30;43.10
52697;DHT22;38593;52.670;6.286;2022-07-19T13:30:54;35.30;43.90
52697;DHT22;38593;52.670;6.286;2022-07-19T13:33:20;35.40;43.40
52697;DHT22;38593;52.670;6.286;2022-07-19T13:35:45;35.30;41.70
52697;DHT22;38593;52.670;6.286;2022-07-19T13:38:11;35.40;43.40
52697;DHT22;38593;52.670;6.286;2022-07-19T13:40:38;35.50;42.50
52697;DHT22;38593;52.670;6.286;2022-07-19T13:43:03;35.60;41.80
52697;DHT22;38593;52.670;6.286;2022-07-19T13:45:29;35.60;41.00
52697;DHT22;38593;52.670;6.286;2022-07-19T13:47:54;35.60;41.60
52697;DHT22;38593;52.670;6.286;2022-07-19T13:50:20;35.70;41.70
52697;DHT22;38593;52.670;6.286;2022-07-19T13:52:45;35.90;42.10
52697;DHT22;38593;52.670;6.286;2022-07-19T13:55:11;35.90;42.00
52697;DHT22;38593;52.670;6.286;2022-07-19T13:57:36;35.90;40.80
52697;DHT22;38593;52.670;6.286;2022-07-19T14:00:03;35.90;41.10
52697;DHT22;38593;52.670;6.286;2022-07-19T14:02:31;36.00;41.50
52697;DHT22;38593;52.670;6.286;2022-07-19T14:04:56;36.00;43.10
52697;DHT22;38593;52.670;6.286;2022-07-19T14:07:22;36.00;41.10
52697;DHT22;38593;52.670;6.286;2022-07-19T14:09:47;36.00;40.50
52697;DHT22;38593;52.670;6.286;2022-07-19T14:12:13;36.00;40.70
52697;DHT22;38593;52.670;6.286;2022-07-19T14:14:39;36.10;40.00
52697;DHT22;38593;52.670;6.286;2022-07-19T14:17:04;36.10;41.00
52697;DHT22;38593;52.670;6.286;2022-07-19T14:19:30;36.10;40.20
52697;DHT22;38593;52.670;6.286;2022-07-19T14:21:56;36.20;41.00
52697;DHT22;38593;52.670;6.286;2022-07-19T14:24:22;36.30;40.60
52697;DHT22;38593;52.670;6.286;2022-07-19T14:26:47;36.30;38.80
52697;DHT22;38593;52.670;6.286;2022-07-19T14:29:13;36.20;40.20
52697;DHT22;38593;52.670;6.286;2022-07-19T14:31:39;36.30;39.90
52697;DHT22;38593;52.670;6.286;2022-07-19T14:34:05;36.30;40.20
52697;DHT22;38593;52.670;6.286;2022-07-19T14:36:31;36.40;40.10
52697;DHT22;38593;52.670;6.286;2022-07-19T14:38:56;36.40;39.80
52697;DHT22;38593;52.670;6.286;2022-07-19T14:41:22;36.50;40.10
52697;DHT22;38593;52.670;6.286;2022-07-19T14:43:47;36.50;40.50
52697;DHT22;38593;52.670;6.286;2022-07-19T14:46:13;36.60;40.10
52697;DHT22;38593;52.670;6.286;2022-07-19T14:48:39;36.60;39.90
52697;DHT22;38593;52.670;6.286;2022-07-19T14:51:04;36.60;40.60
52697;DHT22;38593;52.670;6.286;2022-07-19T14:53:30;36.60;39.50
52697;DHT22;38593;52.670;6.286;2022-07-19T14:55:55;36.70;39.30
52697;DHT22;38593;52.670;6.286;2022-07-19T14:58:21;36.60;39.50
52697;DHT22;38593;52.670;6.286;2022-07-19T15:00:46;36.60;39.20
52697;DHT22;38593;52.670;6.286;2022-07-19T15:03:12;36.60;39.70
52697;DHT22;38593;52.670;6.286;2022-07-19T15:05:37;36.60;39.50
52697;DHT22;38593;52.670;6.286;2022-07-19T15:08:03;36.60;39.50
52697;DHT22;38593;52.670;6.286;2022-07-19T15:10:28;36.70;39.00
52697;DHT22;38593;52.670;6.286;2022-07-19T15:12:55;36.70;40.20
52697;DHT22;38593;52.670;6.286;2022-07-19T15:15:21;36.80;40.00
52697;DHT22;38593;52.670;6.286;2022-07-19T15:17:46;36.80;39.10
52697;DHT22;38593;52.670;6.286;2022-07-19T15:20:12;36.80;39.70
52697;DHT22;38593;52.670;6.286;2022-07-19T15:22:37;36.80;40.20
52697;DHT22;38593;52.670;6.286;2022-07-19T15:25:04;36.90;40.60
52697;DHT22;38593;52.670;6.286;2022-07-19T15:27:30;36.90;39.90
52697;DHT22;38593;52.670;6.286;2022-07-19T15:29:55;36.90;40.40
52697;DHT22;38593;52.670;6.286;2022-07-19T15:32:21;36.90;39.10
52697;DHT22;38593;52.670;6.286;2022-07-19T15:34:46;37.00;39.50
52697;DHT22;38593;52.670;6.286;2022-07-19T15:37:12;37.00;39.60
52697;DHT22;38593;52.670;6.286;2022-07-19T15:39:37;36.90;40.00
52697;DHT22;38593;52.670;6.286;2022-07-19T15:42:03;36.90;39.40
52697;DHT22;38593;52.670;6.286;2022-07-19T15:44:28;36.90;39.70
52697;DHT22;38593;52.670;6.286;2022-07-19T15:46:54;36.90;40.10
52697;DHT22;38593;52.670;6.286;2022-07-19T15:49:19;36.90;38.90
52697;DHT22;38593;52.670;6.286;2022-07-19T15:51:45;36.90;40.00
52697;DHT22;38593;52.670;6.286;2022-07-19T15:54:10;36.90;40.10
52697;DHT22;38593;52.670;6.286;2022-07-19T15:56:36;36.80;40.60
52697;DHT22;38593;52.670;6.286;2022-07-19T15:59:01;36.90;41.20
52697;DHT22;38593;52.670;6.286;2022-07-19T16:01:27;36.90;41.00